Aérodrome :
LOGIN :

S'inscrire | Disclaimer

   EN    FR    IT 

 










Légende :    VFR   VFR Marginal   IFR   IFR Intensif   IFR Très Intensif
Visi : 
Plafond : 
>= 8 km
>= 3000ft
5 à 8 km
1000 à 3000 ft
1500m à 5 km
500 à 1000 ft
800 à 1500m
200 à 500 ft
< 800m
< 200 ft
Symboles :   Orages  Brouillard  Fortes neiges  Fortes précipitations  Vent > 20 kt
SIGMETs :   Divers  Orages  Givrage  Turbulence  Onde Orograph.  Cendres Volcan.







- Altitude de l'aérodrome : 26 ft


ETNT - Wittmundhaven AB

DERNIER METAR :
  • 161520Z 24007KT 8000 FEW011CB BKN029 02/00 Q0988 RESHGS BLU BLU TEMPO GRN

METARs EXPIRÉS :
  • 161442Z 28018KT 4500 SHGSRA BKN011CB BKN028 03/00 Q0988 GRN BLU TEMPO GRN
  • 161447Z 27014KT 6000 BKN011CB BKN028 02/00 Q0988 RESHGS GRN BLU TEMPO GRN
  • 161431Z 27018KT 9000 -SHRASN BKN011CB BKN028 03/00 Q0988 GRN BLU TEMPO GRN
  • 161420Z 26011KT 9999 FEW011CB BKN028 03/01 Q0988 RESHRA BLU BLU TEMPO GRN
  • 161343Z 26014KT 9000 FEW008 SCT011CB BKN028 03/01 Q0987 RESHRA BLU BLU TEMPO GRN
  • 161334Z 26016KT 5000 -SHRA FEW008 SCT011CB BKN028 03/01 Q0987 RESHRA WHT BLU TEMPO GRN
  • 161320Z 26011KT 4000 SHRA FEW009 BKN011CB BKN023 04/02 Q0987 GRN BLU TEMPO GRN
  • 161313Z 25010KT 4000 -SHRA FEW009 SCT011CB BKN023 04/02 Q0987 GRN BLU TEMPO GRN

TAF TAF ETNT
Valide du 16 à 15h jusqu'au 17 à 00h UTC


161405Z 1615/1624 26015G25KT 9999 NSW SCT015 BKN025
TEMPO 1615/1624 29020G30KT 4000 SHRA BKN012CB
PROB30 1615/1624 29025G35KT 3000 TSGS SCT005 BKN008CB BY ETGL
Pas de NOTAMs connus pour ce terrain.



MET'MAP, la Météo Aéronautique d'un coup d'oeil ! - Copyright ORBIFLY Décembre 2007 - Disclaimer

ORBIFLY MET'MAP TEAM :

Programmation & Développement : Alexandra Zaïnal
Conception & Développement : Baudouin d'Aumeries
Co-Programmation & Développement : Marc-Olivier Méhu
Soutien technique & logistique : Manuel Goepfert

Contact : metmap@orbifly.com




SOURCES & CREDITS :

   NOAA